Time;durP1;ratioP1;P1;durP2;ratioP2;P2;SDS_P1;SDS_P2;PMS_P1;PMS_P2;Temp;Humidity;BMP_temperature;BMP_pressure;BME280_temperature;BME280_humidity;BME280_pressure;Samples;Min_cycle;Max_cycle;Signal;HPM_P1;HPM_P2
2022/01/12 00:01:05;;;;;;;14.57;6.07;;;;;;;15.60;42.26;103597.09;5054560;28;20504;-73
2022/01/12 00:03:32;;;;;;;18.77;5.80;;;;;;;15.60;41.92;103594.34;5036590;28;20746;-74
2022/01/12 00:05:58;;;;;;;16.30;6.00;;;;;;;15.67;41.97;103597.69;5054383;28;20056;-73
2022/01/12 00:08:25;;;;;;;12.20;5.05;;;;;;;15.68;41.67;103596.56;5054332;28;20099;-73
2022/01/12 00:10:50;;;;;;;15.50;5.20;;;;;;;15.44;42.26;103597.13;5054211;28;20047;-73
2022/01/12 00:13:16;;;;;;;14.20;5.35;;;;;;;15.54;42.04;103599.84;5054153;28;20478;-74
2022/01/12 00:15:42;;;;;;;13.88;5.43;;;;;;;15.47;42.22;103602.06;5054449;28;20032;-73
2022/01/12 00:18:08;;;;;;;15.07;5.88;;;;;;;15.36;42.38;103603.19;5054114;28;20452;-78
2022/01/12 00:20:34;;;;;;;16.65;6.07;;;;;;;15.20;42.71;103607.06;5054173;28;20033;-73
2022/01/12 00:22:59;;;;;;;13.43;5.10;;;;;;;15.24;42.82;103608.13;5054050;28;20367;-73
2022/01/12 00:25:32;;;;;;;18.42;6.00;;;;;;;15.18;42.69;103607.28;5036045;28;20470;-72
2022/01/12 00:33:29;;;;;;;18.10;6.95;;;;;;;15.23;42.53;103617.50;5053862;28;20032;-73
2022/01/12 00:35:57;;;;;;;26.02;5.97;;;;;;;15.36;42.28;103621.66;5053852;28;20025;-73
2022/01/12 00:38:25;;;;;;;17.10;6.50;;;;;;;15.27;42.52;103610.34;5053647;28;20021;-75
2022/01/12 00:40:54;;;;;;;17.02;4.95;;;;;;;15.34;42.24;103618.31;5053742;28;20036;-73
2022/01/12 00:43:21;;;;;;;17.75;6.75;;;;;;;15.33;42.42;103622.19;5053637;28;20381;-73
2022/01/12 00:45:47;;;;;;;18.17;6.95;;;;;;;15.26;42.44;103617.81;5053556;28;20537;-73
2022/01/12 00:48:15;;;;;;;17.33;6.30;;;;;;;15.26;42.10;103622.44;5053519;28;20057;-75
2022/01/12 00:50:41;;;;;;;20.50;6.45;;;;;;;15.26;42.35;103622.44;5053500;28;20098;-73
2022/01/12 00:53:07;;;;;;;14.38;5.47;;;;;;;15.28;42.21;103617.50;5053354;28;20028;-74
2022/01/12 00:55:33;;;;;;;23.55;7.28;;;;;;;15.29;42.05;103621.91;5053378;28;20359;-73
2022/01/12 00:57:59;;;;;;;21.70;5.53;;;;;;;15.33;41.96;103627.69;5053381;28;20029;-73
2022/01/12 01:00:27;;;;;;;17.50;6.03;;;;;;;15.25;42.16;103616.13;5053133;28;20533;-74
2022/01/12 01:02:53;;;;;;;16.77;5.72;;;;;;;15.26;42.16;103622.44;5053393;28;20029;-72
2022/01/12 01:05:22;;;;;;;15.52;5.80;;;;;;;15.00;42.42;103624.38;5053248;28;20599;-73
2022/01/12 01:07:48;;;;;;;13.05;6.28;;;;;;;15.09;42.48;103617.22;5053249;28;20025;-74
2022/01/12 01:10:21;;;;;;;19.73;6.13;;;;;;;14.93;42.81;103613.63;5053185;28;20043;-74
2022/01/12 01:12:46;;;;;;;20.35;5.95;;;;;;;14.91;43.15;103604.81;5053109;28;20443;-73
2022/01/12 01:15:17;;;;;;;13.45;6.03;;;;;;;14.84;43.27;103593.22;5053070;28;20071;-73
2022/01/12 01:25:48;;;;;;;17.23;5.32;;;;;;;14.49;44.37;103602.22;5052914;28;20036;-73
2022/01/12 01:28:15;;;;;;;17.35;6.38;;;;;;;14.35;44.76;103607.34;5052785;28;20032;-72
2022/01/12 01:30:42;;;;;;;16.70;5.85;;;;;;;14.46;44.43;103604.69;5052802;28;20044;-73
2022/01/12 01:33:10;;;;;;;17.65;7.63;;;;;;;14.52;44.40;103587.13;5052675;28;20040;-73
2022/01/12 01:35:43;;;;;;;9.38;4.80;;;;;;;14.48;44.48;103595.06;5052669;28;20029;-73
2022/01/12 01:38:08;;;;;;;15.90;6.15;;;;;;;14.55;44.51;103590.13;5052619;28;20024;-73
2022/01/12 01:40:37;;;;;;;10.93;5.72;;;;;;;14.54;44.31;103588.50;5052652;28;20117;-73
2022/01/12 01:43:15;;;;;;;13.80;5.97;;;;;;;14.57;44.48;103593.44;5052609;28;20029;-80
2022/01/12 01:53:54;;;;;;;12.00;5.20;;;;;;;14.53;44.43;103592.34;5052563;28;20040;-73
2022/01/12 01:56:19;;;;;;;13.13;5.38;;;;;;;14.62;44.20;103595.38;5052415;28;20029;-73
2022/01/12 01:58:49;;;;;;;13.45;5.20;;;;;;;14.55;44.59;103595.63;5052408;28;20455;-73
2022/01/12 02:01:15;;;;;;;14.63;5.72;;;;;;;14.48;44.79;103594.25;5052434;28;20086;-75
2022/01/12 02:03:41;;;;;;;15.20;5.00;;;;;;;14.48;44.82;103586.81;5052370;28;20029;-73
2022/01/12 02:06:08;;;;;;;22.38;7.13;;;;;;;14.47;44.75;103595.34;5052357;28;20045;-72
2022/01/12 02:08:35;;;;;;;15.48;4.90;;;;;;;14.35;45.11;103590.84;5052282;28;20025;-72
2022/01/12 02:11:02;;;;;;;19.80;5.55;;;;;;;14.31;45.20;103592.50;5052720;28;20025;-72
2022/01/12 02:13:28;;;;;;;16.25;5.68;;;;;;;14.28;45.52;103594.94;5056403;28;20116;-73
2022/01/12 02:15:55;;;;;;;20.33;5.35;;;;;;;14.28;45.32;103584.81;5056513;28;20466;-73
2022/01/12 02:40:39;;;;;;;;;;;;;;;14.48;44.57;103611.56;5056515;28;20029;-73
2022/01/12 02:43:16;;;;;;;18.52;5.30;;;;;;;14.62;44.30;103618.22;5055380;28;20011;-73
2022/01/12 02:51:16;;;;;;;22.98;7.53;;;;;;;14.47;44.68;103636.59;5055793;28;20052;-77
2022/01/12 02:53:44;;;;;;;19.80;6.38;;;;;;;14.34;45.04;103637.88;5055832;28;20032;-73
2022/01/12 02:56:15;;;;;;;18.83;6.20;;;;;;;14.19;45.46;103632.31;5055675;28;20036;-73
2022/01/12 02:58:42;;;;;;;14.13;3.80;;;;;;;14.38;44.85;103634.34;5055689;28;20032;-78
2022/01/12 03:03:37;;;;;;;14.90;5.35;;;;;;;14.40;45.01;103636.81;5055492;28;20050;-73
2022/01/12 03:06:06;;;;;;;17.60;6.55;;;;;;;14.10;45.79;103629.25;5055760;28;20383;-73
2022/01/12 03:08:41;;;;;;;14.95;4.22;;;;;;;14.18;45.58;103641.66;5055410;28;20028;-72
2022/01/12 03:11:08;;;;;;;10.23;4.57;;;;;;;14.14;45.88;103636.72;5055467;28;20502;-71
2022/01/12 03:13:35;;;;;;;20.70;4.60;;;;;;;14.15;45.72;103621.03;5055338;28;20368;-73
2022/01/12 03:16:08;;;;;;;16.48;4.90;;;;;;;13.90;46.24;103632.69;5055323;28;20490;-73
2022/01/12 03:18:34;;;;;;;15.07;5.03;;;;;;;14.22;45.74;103626.31;5037414;28;20146;-79
2022/01/12 03:20:59;;;;;;;14.38;4.50;;;;;;;14.37;45.09;103618.94;5055231;28;20068;-78
2022/01/12 03:23:25;;;;;;;15.80;4.53;;;;;;;14.42;44.72;103629.94;5054576;28;20060;-77
2022/01/12 03:25:50;;;;;;;10.77;4.53;;;;;;;14.46;44.71;103630.28;5054091;28;20029;-73
2022/01/12 03:28:16;;;;;;;21.48;4.72;;;;;;;14.49;44.48;103642.66;5055093;28;20028;-78
2022/01/12 03:30:54;;;;;;;13.32;4.53;;;;;;;14.52;44.54;103653.16;5055062;28;20406;-72
2022/01/12 03:36:27;;;;;;;10.75;4.32;;;;;;;14.65;44.23;103661.72;5044573;28;20033;-73
2022/01/12 03:38:56;;;;;;;17.38;4.70;;;;;;;14.51;44.27;103673.47;5055220;28;20051;-73
2022/01/12 03:41:23;;;;;;;12.60;4.50;;;;;;;14.42;44.68;103668.47;5054795;28;20059;-72
2022/01/12 03:43:49;;;;;;;12.75;4.75;;;;;;;14.21;45.17;103683.22;5054817;28;20501;-73
2022/01/12 03:46:17;;;;;;;16.67;4.22;;;;;;;14.08;45.37;103690.00;5054751;28;20032;-73
2022/01/12 03:48:42;;;;;;;9.70;4.30;;;;;;;14.06;45.60;103694.13;5054714;28;20029;-73
2022/01/12 03:51:08;;;;;;;9.57;4.43;;;;;;;14.21;45.29;103688.72;5054665;28;20025;-73
2022/01/12 03:53:34;;;;;;;16.13;4.43;;;;;;;14.00;45.52;103685.00;5054461;28;20037;-73
2022/01/12 03:55:59;;;;;;;13.05;4.53;;;;;;;14.01;45.08;103688.59;5036734;28;20025;-73
2022/01/12 03:58:25;;;;;;;14.13;5.05;;;;;;;14.05;45.45;103690.53;5054807;28;20025;-73
2022/01/12 04:00:50;;;;;;;12.10;5.53;;;;;;;14.01;45.47;103694.09;5054516;28;20075;-73
2022/01/12 04:03:16;;;;;;;10.52;4.40;;;;;;;14.10;45.16;103700.75;5036519;28;20033;-73
2022/01/12 04:08:23;;;;;;;12.68;4.18;;;;;;;14.16;44.80;103724.44;5054729;28;20028;-73
2022/01/12 04:10:55;;;;;;;16.20;4.45;;;;;;;14.28;44.62;103726.97;5036447;28;20025;-73
2022/01/12 04:13:23;;;;;;;27.90;7.65;;;;;;;14.28;44.31;103727.81;5054147;28;20072;-73
2022/01/12 04:15:52;;;;;;;17.90;6.43;;;;;;;14.22;44.56;103733.56;5036346;28;20554;-72
2022/01/12 04:18:17;;;;;;;15.85;4.60;;;;;;;14.29;44.42;103737.72;5054089;28;20086;-73
2022/01/12 04:20:47;;;;;;;12.90;4.75;;;;;;;14.38;44.03;103744.38;5036316;28;20029;-74
2022/01/12 04:23:17;;;;;;;16.05;4.72;;;;;;;14.21;44.60;103745.63;5053913;28;20025;-72
2022/01/12 04:25:47;;;;;;;15.30;4.47;;;;;;;14.23;44.25;103744.28;5054081;28;20055;-72
2022/01/12 04:28:13;;;;;;;16.75;5.93;;;;;;;14.15;44.36;103744.78;5053967;28;20028;-73
2022/01/12 04:30:38;;;;;;;17.67;5.47;;;;;;;14.16;44.61;103743.69;5053934;28;20033;-73
2022/01/12 04:33:04;;;;;;;13.75;5.72;;;;;;;14.14;44.67;103743.94;5053867;28;20503;-72
2022/01/12 04:35:35;;;;;;;21.05;4.78;;;;;;;14.31;44.24;103757.53;5053232;28;20032;-72
2022/01/12 04:38:03;;;;;;;13.80;5.07;;;;;;;14.37;44.00;103747.41;5035896;28;20119;-73
2022/01/12 04:40:28;;;;;;;12.85;5.40;;;;;;;14.43;43.86;103757.31;5053713;28;20112;-73
2022/01/12 04:42:55;;;;;;;12.80;5.47;;;;;;;14.39;44.01;103765.28;5053285;28;20116;-73
2022/01/12 04:50:20;;;;;;;;;;;;;;;14.28;43.87;103759.97;5054301;28;20472;-72
2022/01/12 04:52:45;;;;;;;11.50;4.47;;;;;;;14.31;43.85;103760.28;5035453;28;19999;-74
2022/01/12 04:55:11;;;;;;;13.55;4.53;;;;;;;14.24;43.57;103758.84;5053330;28;20029;-73
2022/01/12 04:57:36;;;;;;;13.57;4.38;;;;;;;14.21;43.86;103768.47;5053363;28;20032;-73
2022/01/12 05:00:13;;;;;;;12.63;4.25;;;;;;;14.26;43.65;103773.16;5035447;28;20029;-73
2022/01/12 05:09:04;;;;;;;16.77;5.68;;;;;;;14.35;43.40;103775.16;5053212;28;20035;-72
2022/01/12 05:13:43;;;;;;;18.52;5.32;;;;;;;14.20;43.67;103771.47;5053101;28;20059;-72
2022/01/12 05:16:12;;;;;;;13.18;5.78;;;;;;;14.17;43.77;103775.59;5035211;28;20033;-74
2022/01/12 05:18:39;;;;;;;15.00;5.37;;;;;;;14.17;43.59;103778.34;5053060;28;20071;-73
2022/01/12 05:21:05;;;;;;;19.02;5.38;;;;;;;14.12;43.68;103776.38;5053023;28;20390;-75
2022/01/12 05:23:31;;;;;;;53.40;6.88;;;;;;;14.14;43.68;103782.44;5052593;28;20092;-72
2022/01/12 05:25:58;;;;;;;15.20;5.53;;;;;;;14.07;43.82;103781.00;5052853;28;20086;-74
2022/01/12 05:28:24;;;;;;;16.13;5.57;;;;;;;14.05;43.79;103788.69;5052771;28;20036;-73
2022/01/12 05:30:51;;;;;;;16.13;5.70;;;;;;;14.02;43.83;103795.53;5052868;28;20115;-73
2022/01/12 05:33:17;;;;;;;12.35;4.60;;;;;;;13.98;44.00;103801.81;5034767;28;20587;-79
2022/01/12 05:35:43;;;;;;;14.68;4.50;;;;;;;13.90;44.26;103808.63;5052230;28;20036;-73
2022/01/12 05:38:12;;;;;;;11.95;5.45;;;;;;;13.98;44.16;103810.91;5051625;28;20382;-73
2022/01/12 05:40:45;;;;;;;15.35;4.93;;;;;;;13.93;44.11;103816.34;5052626;28;20031;-72
2022/01/12 05:43:11;;;;;;;15.13;5.47;;;;;;;13.96;44.16;103810.31;5052717;28;20025;-73
2022/01/12 05:45:39;;;;;;;14.00;4.78;;;;;;;14.00;44.27;103802.41;5051721;28;20036;-73
2022/01/12 05:50:33;;;;;;;13.55;5.65;;;;;;;14.03;43.94;103799.94;5052788;28;20088;-73
2022/01/12 05:52:59;;;;;;;11.57;4.63;;;;;;;14.01;44.02;103795.81;5052455;28;20041;-72
2022/01/12 05:55:24;;;;;;;14.65;5.10;;;;;;;13.96;44.00;103795.75;5034552;28;20025;-73
2022/01/12 05:57:50;;;;;;;20.80;5.95;;;;;;;13.87;44.12;103801.72;5052285;28;20104;-73
2022/01/12 06:00:18;;;;;;;12.05;4.93;;;;;;;13.85;44.05;103798.41;5052409;28;20033;-72
2022/01/12 06:02:44;;;;;;;13.60;4.20;;;;;;;13.90;44.17;103794.88;5052400;28;20108;-73
2022/01/12 06:05:09;;;;;;;11.88;4.13;;;;;;;14.00;44.04;103799.66;5052347;28;20100;-71
2022/01/12 06:07:35;;;;;;;13.35;5.35;;;;;;;14.03;43.97;103797.19;5052388;28;20086;-77
2022/01/12 06:10:01;;;;;;;13.82;5.15;;;;;;;14.04;44.27;103800.78;5052292;28;20029;-72
2022/01/12 06:12:26;;;;;;;15.13;4.88;;;;;;;14.34;43.79;103797.44;5034317;28;20036;-73
2022/01/12 06:14:52;;;;;;;15.52;5.28;;;;;;;14.59;43.10;103792.13;5052408;28;20056;-77
2022/01/12 06:17:18;;;;;;;12.57;5.35;;;;;;;14.57;43.35;103797.06;5034403;28;20107;-79
2022/01/12 06:19:44;;;;;;;17.83;5.13;;;;;;;14.61;43.50;103797.38;5052417;28;20025;-73
2022/01/12 06:22:10;;;;;;;15.65;6.15;;;;;;;14.67;43.41;103790.81;5051881;28;20041;-72
2022/01/12 06:24:36;;;;;;;14.63;4.50;;;;;;;14.69;43.20;103783.09;5051942;28;20127;-73
2022/01/12 06:27:04;;;;;;;16.60;5.22;;;;;;;14.70;43.31;103782.81;5034281;28;20035;-78
2022/01/12 06:32:25;;;;;;;11.32;3.97;;;;;;;14.78;43.21;103780.66;4963560;28;20126;-75
2022/01/12 06:34:50;;;;;;;17.52;4.90;;;;;;;14.66;43.47;103778.97;5051801;28;20113;-78
2022/01/12 06:37:16;;;;;;;27.17;6.90;;;;;;;14.85;43.08;103775.75;5034236;28;20107;-73
2022/01/12 06:39:41;;;;;;;15.32;4.22;;;;;;;14.82;43.29;103770.78;5051959;28;20021;-73
2022/01/12 06:42:07;;;;;;;11.57;4.70;;;;;;;14.76;43.52;103791.13;5051869;28;20029;-73
2022/01/12 06:44:33;;;;;;;16.70;3.85;;;;;;;14.82;43.40;103792.81;5051850;28;20127;-73
2022/01/12 06:47:02;;;;;;;11.95;3.97;;;;;;;14.66;43.84;103791.88;5051943;28;20064;-78
2022/01/12 06:49:28;;;;;;;13.73;4.35;;;;;;;14.75;43.43;103793.06;5052211;28;20387;-73
2022/01/12 06:51:54;;;;;;;17.63;4.95;;;;;;;14.85;43.37;103800.53;5051995;28;20033;-73
2022/01/12 06:54:19;;;;;;;17.48;4.63;;;;;;;14.93;43.18;103802.75;5051859;28;20479;-72
2022/01/12 06:56:46;;;;;;;12.60;4.68;;;;;;;14.87;43.31;103818.41;5051831;28;20471;-73
2022/01/12 06:59:11;;;;;;;13.15;3.78;;;;;;;14.87;43.25;103821.16;5055538;28;20116;-73
2022/01/12 07:01:37;;;;;;;11.65;4.63;;;;;;;14.88;43.52;103822.81;5055292;28;20108;-73
2022/01/12 07:04:03;;;;;;;12.00;3.88;;;;;;;14.86;43.29;103837.97;5055601;28;20486;-72
2022/01/12 07:06:29;;;;;;;11.93;4.18;;;;;;;14.74;43.80;103853.88;5037578;28;20109;-72
2022/01/12 07:08:55;;;;;;;17.40;4.20;;;;;;;14.87;43.22;103842.38;5055467;28;20029;-73
2022/01/12 07:11:20;;;;;;;19.15;4.68;;;;;;;14.86;43.22;103860.81;5037633;28;20534;-72
2022/01/12 07:13:46;;;;;;;17.30;4.28;;;;;;;14.80;43.29;103852.78;5055311;28;20025;-72
2022/01/12 07:16:12;;;;;;;11.00;3.90;;;;;;;14.82;43.28;103862.47;5055341;28;20036;-72
2022/01/12 07:18:38;;;;;;;19.00;4.55;;;;;;;14.83;43.19;103861.38;5055562;28;20100;-73
2022/01/12 07:21:04;;;;;;;10.38;4.53;;;;;;;14.81;43.14;103862.69;5055221;28;20074;-72
2022/01/12 07:23:29;;;;;;;15.43;4.57;;;;;;;14.83;43.31;103868.78;5054991;28;20135;-73
2022/01/12 07:25:55;;;;;;;14.70;4.15;;;;;;;14.85;43.12;103870.19;5037262;28;20017;-72
2022/01/12 07:28:22;;;;;;;13.95;3.80;;;;;;;14.68;43.39;103873.09;5054764;28;20033;-73
2022/01/12 07:30:48;;;;;;;11.85;5.80;;;;;;;14.80;43.34;103872.88;5055118;28;20430;-73
2022/01/12 07:33:15;;;;;;;16.08;6.65;;;;;;;14.81;43.01;103879.22;5054882;28;20448;-73
2022/01/12 07:35:42;;;;;;;19.70;4.95;;;;;;;14.85;43.03;103877.59;5054949;28;20028;-72
2022/01/12 07:38:08;;;;;;;14.98;4.05;;;;;;;14.76;43.25;103871.78;5054894;28;20028;-73
2022/01/12 07:40:35;;;;;;;12.73;4.45;;;;;;;14.67;43.04;103873.38;5054871;28;20033;-73
2022/01/12 07:43:03;;;;;;;18.17;5.47;;;;;;;14.64;43.03;103876.63;5037008;28;20388;-73
2022/01/12 07:45:28;;;;;;;16.90;5.05;;;;;;;14.61;43.22;103866.16;5054816;28;20055;-73
2022/01/12 07:47:54;;;;;;;13.45;4.40;;;;;;;14.51;43.24;103864.19;5054776;28;20510;-73
2022/01/12 07:50:20;;;;;;;13.75;5.22;;;;;;;14.61;42.90;103863.41;5054686;28;20142;-74
2022/01/12 07:52:46;;;;;;;10.70;4.00;;;;;;;14.55;43.09;103869.97;5054548;28;20033;-73
2022/01/12 07:55:12;;;;;;;8.88;3.70;;;;;;;14.35;43.45;103860.41;5054664;28;20040;-73
2022/01/12 07:57:38;;;;;;;8.45;3.40;;;;;;;14.46;43.16;103858.63;5054556;28;20048;-74
2022/01/12 08:00:05;;;;;;;11.18;4.13;;;;;;;14.41;43.29;103858.56;5054577;28;20048;-75
2022/01/12 08:02:31;;;;;;;10.18;4.00;;;;;;;14.31;43.50;103851.06;5054335;28;20029;-78
2022/01/12 08:04:56;;;;;;;10.57;3.78;;;;;;;14.25;43.76;103849.34;5054575;28;20112;-75
2022/01/12 08:07:22;;;;;;;13.63;4.07;;;;;;;14.37;43.37;103858.25;5054034;28;20473;-74
2022/01/12 08:09:48;;;;;;;15.70;4.38;;;;;;;14.32;43.45;103849.13;5053460;28;20032;-73
2022/01/12 08:12:13;;;;;;;15.90;5.40;;;;;;;14.37;43.56;103852.75;5053908;28;20035;-73
2022/01/12 08:14:39;;;;;;;13.02;3.97;;;;;;;14.27;43.80;103857.34;5054051;28;20024;-73
2022/01/12 08:17:05;;;;;;;15.52;4.20;;;;;;;14.25;43.99;103859.53;5036244;28;20029;-73
2022/01/12 08:19:35;;;;;;;16.63;4.55;;;;;;;14.46;43.40;103866.06;5053858;28;20391;-78
2022/01/12 08:22:03;;;;;;;8.68;3.63;;;;;;;14.43;43.58;103859.09;5053939;28;20082;-75
2022/01/12 08:24:29;;;;;;;11.20;4.03;;;;;;;14.36;43.84;103864.84;5053803;28;20102;-74
2022/01/12 08:26:54;;;;;;;10.65;4.00;;;;;;;14.37;43.82;103872.00;5053582;28;20029;-73
2022/01/12 08:29:20;;;;;;;12.10;4.30;;;;;;;14.50;43.68;103879.00;5053538;28;20021;-73
2022/01/12 08:31:46;;;;;;;6.05;2.80;;;;;;;14.43;43.59;103881.97;5053558;28;20029;-73
2022/01/12 08:34:12;;;;;;;11.30;3.53;;;;;;;14.57;43.15;103895.28;5053670;28;20035;-73
2022/01/12 08:36:40;;;;;;;11.30;4.18;;;;;;;14.42;43.51;103899.53;5053701;28;20032;-77
2022/01/12 08:39:09;;;;;;;15.70;5.45;;;;;;;14.43;43.38;103898.47;5053812;28;20036;-74
2022/01/12 08:41:37;;;;;;;10.52;3.80;;;;;;;14.32;43.76;103893.13;5053660;28;20515;-73
2022/01/12 08:44:05;;;;;;;17.73;3.70;;;;;;;14.33;43.76;103897.53;5051361;28;20029;-73
2022/01/12 08:46:30;;;;;;;9.98;3.42;;;;;;;14.29;43.88;103907.44;5051395;28;20021;-74
2022/01/12 08:48:56;;;;;;;19.08;4.13;;;;;;;14.40;43.40;103911.91;5052396;28;20048;-79
2022/01/12 08:51:21;;;;;;;13.98;4.03;;;;;;;14.39;43.49;103916.59;5052774;28;20044;-77
2022/01/12 08:53:48;;;;;;;11.90;4.22;;;;;;;14.35;43.68;103915.44;5035033;28;20024;-73
2022/01/12 08:56:14;;;;;;;9.70;4.45;;;;;;;14.48;43.39;103919.72;5052860;28;20029;-73
2022/01/12 08:58:40;;;;;;;15.32;5.32;;;;;;;14.52;43.30;103922.78;5052937;28;20052;-73
2022/01/12 09:01:06;;;;;;;9.90;3.65;;;;;;;14.44;43.49;103924.91;5052111;28;20021;-73
2022/01/12 09:03:32;;;;;;;12.52;5.32;;;;;;;14.50;43.21;103934.03;5052010;28;20533;-73
2022/01/12 09:05:57;;;;;;;9.95;4.30;;;;;;;14.56;43.12;103940.41;5052411;28;20052;-73
2022/01/12 09:08:23;;;;;;;13.48;3.88;;;;;;;14.63;43.11;103949.28;5052787;28;20025;-73
2022/01/12 09:10:49;;;;;;;9.25;3.78;;;;;;;14.62;42.94;103951.22;5053110;28;20373;-73
2022/01/12 09:13:15;;;;;;;12.98;4.80;;;;;;;14.76;42.63;103951.59;5053073;28;20112;-73
2022/01/12 09:15:41;;;;;;;10.68;4.00;;;;;;;14.75;42.66;103949.94;5053111;28;20128;-73
2022/01/12 09:18:07;;;;;;;14.85;3.90;;;;;;;14.76;42.95;103950.78;5052962;28;20028;-75
2022/01/12 09:20:32;;;;;;;14.15;3.85;;;;;;;14.56;43.20;103948.69;5053070;28;20524;-73
2022/01/12 09:22:59;;;;;;;12.82;4.88;;;;;;;14.42;43.21;103938.06;5052800;28;20037;-73
2022/01/12 09:25:25;;;;;;;10.05;4.00;;;;;;;14.50;42.97;103938.72;5053002;28;20043;-72
2022/01/12 09:27:50;;;;;;;10.98;3.78;;;;;;;14.68;42.75;103946.59;5034225;28;20033;-80
2022/01/12 09:30:18;;;;;;;9.35;3.78;;;;;;;14.73;42.76;103954.88;5033926;28;20119;-73
2022/01/12 09:32:45;;;;;;;18.65;16.42;;;;;;;14.79;42.67;103969.50;5051718;28;20068;-73
2022/01/12 09:35:12;;;;;;;16.65;7.32;;;;;;;14.86;42.59;103968.19;5051712;28;20391;-72
2022/01/12 09:37:38;;;;;;;12.68;4.82;;;;;;;14.92;42.43;103969.88;5051739;28;20035;-73
2022/01/12 09:40:05;;;;;;;11.50;4.63;;;;;;;14.97;42.60;103977.38;5033736;28;20029;-73
2022/01/12 09:42:32;;;;;;;15.43;9.43;;;;;;;15.00;42.54;103979.56;5051611;28;20029;-73
2022/01/12 09:44:58;;;;;;;14.10;4.50;;;;;;;15.05;42.57;103967.78;5051604;28;20021;-73
2022/01/12 09:47:24;;;;;;;17.23;10.02;;;;;;;15.15;42.59;103976.09;5033719;28;20075;-73
2022/01/12 09:49:49;;;;;;;10.00;4.60;;;;;;;15.16;42.68;103984.09;5033712;28;20040;-76
2022/01/12 09:52:15;;;;;;;13.07;4.70;;;;;;;15.30;42.29;103980.88;5051413;28;20103;-74
2022/01/12 09:54:42;;;;;;;14.18;5.63;;;;;;;15.34;42.46;103977.34;5051620;28;20060;-79
2022/01/12 09:57:07;;;;;;;17.55;7.93;;;;;;;15.45;42.33;103981.78;5051402;28;20040;-73
2022/01/12 09:59:35;;;;;;;14.43;6.80;;;;;;;15.43;42.71;103977.66;5051526;28;20479;-73
2022/01/12 10:02:02;;;;;;;9.77;6.80;;;;;;;15.54;42.18;103982.94;5051424;28;20360;-73
2022/01/12 10:04:30;;;;;;;14.38;5.20;;;;;;;15.40;42.58;103980.94;5049166;28;20348;-80
2022/01/12 10:07:02;;;;;;;15.60;4.40;;;;;;;15.60;42.37;103986.56;5051121;28;20028;-76
2022/01/12 10:09:37;;;;;;;9.77;4.05;;;;;;;15.67;42.06;103987.16;5048655;28;20024;-73
2022/01/12 10:12:05;;;;;;;18.95;9.18;;;;;;;15.75;42.12;103988.56;5050947;28;20028;-73
2022/01/12 10:14:45;;;;;;;14.40;5.47;;;;;;;15.95;41.95;103987.84;5049078;28;20028;-78
2022/01/12 10:17:12;;;;;;;11.77;6.18;;;;;;;15.95;41.70;104005.22;5049035;28;20078;-73
2022/01/12 10:19:39;;;;;;;10.73;4.95;;;;;;;16.02;41.84;104010.44;5051214;28;20024;-74
2022/01/12 10:22:08;;;;;;;14.45;5.10;;;;;;;16.01;41.62;104012.38;5050277;28;20021;-73
2022/01/12 10:24:41;;;;;;;11.70;3.95;;;;;;;15.98;41.66;104015.69;5028992;28;20583;-74
2022/01/12 10:27:13;;;;;;;14.38;6.95;;;;;;;15.95;41.75;104010.72;5027214;28;20466;-76
2022/01/12 10:29:38;;;;;;;11.43;7.47;;;;;;;16.08;41.61;104021.22;5030245;28;20013;-80
2022/01/12 10:32:08;;;;;;;11.20;6.72;;;;;;;16.09;41.65;104030.34;5031382;28;20079;-73
2022/01/12 10:34:41;;;;;;;46.50;9.45;;;;;;;16.19;41.42;104033.13;5033966;28;20037;-74
2022/01/12 10:37:19;;;;;;;11.23;4.35;;;;;;;16.32;41.34;104031.78;5035123;28;20032;-73
2022/01/12 10:39:50;;;;;;;10.35;4.88;;;;;;;16.35;41.43;104039.53;5035141;28;20032;-73
2022/01/12 10:42:24;;;;;;;16.30;5.55;;;;;;;16.37;41.53;104031.78;5035158;28;20104;-74
2022/01/12 10:44:52;;;;;;;13.63;6.22;;;;;;;16.43;41.22;104036.22;5031442;28;20032;-72
2022/01/12 10:47:21;;;;;;;12.77;4.03;;;;;;;16.59;41.66;104026.03;5033335;28;20392;-80
2022/01/12 10:49:58;;;;;;;9.88;3.90;;;;;;;16.60;41.38;104022.16;5034495;28;20087;-73
2022/01/12 10:52:36;;;;;;;31.38;28.20;;;;;;;16.71;41.32;104020.28;5034810;28;20026;-72
2022/01/12 10:55:03;;;;;;;11.95;6.03;;;;;;;16.80;41.14;104016.69;5033667;28;20053;-74
2022/01/12 10:57:33;;;;;;;8.57;7.07;;;;;;;16.83;41.06;104016.13;5032358;28;20432;-73
2022/01/12 11:00:06;;;;;;;11.32;4.38;;;;;;;16.91;41.34;104014.75;5034933;28;20021;-73
2022/01/12 11:02:33;;;;;;;10.40;3.83;;;;;;;16.92;41.32;104010.88;5032617;28;20497;-74
2022/01/12 11:05:01;;;;;;;9.25;5.20;;;;;;;17.08;40.95;104012.56;5034699;28;20022;-80
2022/01/12 11:07:30;;;;;;;11.70;3.15;;;;;;;17.02;41.23;104012.84;5034613;28;20104;-72
2022/01/12 11:10:01;;;;;;;16.40;4.13;;;;;;;17.06;41.08;104020.28;5034522;28;20021;-72
2022/01/12 11:12:27;;;;;;;14.02;4.03;;;;;;;17.07;41.06;104019.16;5034548;28;20029;-73
2022/01/12 11:14:54;;;;;;;10.55;3.42;;;;;;;17.08;41.34;104014.50;5034140;28;20028;-73
2022/01/12 11:17:19;;;;;;;13.05;5.07;;;;;;;17.22;41.18;104009.19;5033067;28;20568;-73
2022/01/12 11:20:09;;;;;;;9.45;3.83;;;;;;;17.29;40.98;104015.25;5034262;28;20109;-74
2022/01/12 11:22:35;;;;;;;;;;;;;;;17.25;41.08;104014.19;5033209;28;20029;-74
2022/01/12 11:25:01;;;;;;;12.02;4.82;;;;;;;17.39;40.83;104018.84;5051446;28;19924;-73
2022/01/12 11:27:26;;;;;;;15.63;3.88;;;;;;;17.52;40.65;104017.41;5028066;28;20049;-74
2022/01/12 11:29:52;;;;;;;11.88;3.45;;;;;;;17.59;40.68;104017.94;5054033;28;20025;-73
2022/01/12 11:32:24;;;;;;;13.13;7.60;;;;;;;17.63;40.62;104013.53;5053403;28;20071;-72
2022/01/12 11:35:00;;;;;;;17.02;9.05;;;;;;;17.64;40.69;104001.34;5051812;28;20143;-78
2022/01/12 11:37:26;;;;;;;76.15;67.53;;;;;;;17.57;40.83;104002.75;5053589;28;20088;-71
2022/01/12 11:39:52;;;;;;;19.83;13.73;;;;;;;17.58;40.96;103994.16;5053978;28;20024;-81
2022/01/12 11:42:18;;;;;;;8.73;4.50;;;;;;;17.20;41.92;103987.38;5053821;28;20434;-72
2022/01/12 11:44:45;;;;;;;12.75;4.45;;;;;;;17.40;41.43;103986.50;5034571;28;20025;-77
2022/01/12 11:47:13;;;;;;;13.68;4.10;;;;;;;17.48;41.18;103994.22;5053613;28;20155;-71
2022/01/12 11:49:53;;;;;;;7.65;2.63;;;;;;;17.72;40.74;103986.97;5053465;28;20097;-72
2022/01/12 11:52:26;;;;;;;12.65;6.63;;;;;;;17.83;40.91;103986.91;5053750;28;20029;-71
2022/01/12 11:55:08;;;;;;;12.23;4.00;;;;;;;17.90;40.72;103990.19;5053515;28;20776;-72
2022/01/12 11:57:38;;;;;;;12.27;4.68;;;;;;;17.69;41.40;103978.38;5052491;28;20033;-71
2022/01/12 12:00:14;;;;;;;9.57;3.60;;;;;;;17.03;42.44;103981.34;5051789;28;20021;-71
2022/01/12 12:02:51;;;;;;;16.95;3.72;;;;;;;17.70;41.32;103977.28;5036228;28;20029;-72
2022/01/12 12:05:20;;;;;;;9.25;3.42;;;;;;;18.02;40.60;103977.69;5053049;28;20025;-72
2022/01/12 12:07:53;;;;;;;7.13;3.30;;;;;;;18.04;40.77;103982.94;5036196;28;20363;-72
2022/01/12 12:10:22;;;;;;;10.55;3.08;;;;;;;18.10;40.62;103986.50;5053845;28;20104;-72
2022/01/12 12:12:51;;;;;;;20.70;4.70;;;;;;;18.18;40.45;103978.41;5053900;28;20495;-71
2022/01/12 12:15:17;;;;;;;15.20;4.03;;;;;;;18.29;40.44;103971.72;5053954;28;20028;-79
2022/01/12 12:17:43;;;;;;;12.80;3.78;;;;;;;18.40;40.50;103971.63;5050665;28;20108;-73
2022/01/12 12:20:15;;;;;;;16.80;3.60;;;;;;;18.48;40.31;103965.47;5052666;28;20036;-71
2022/01/12 12:22:44;;;;;;;9.20;4.03;;;;;;;18.48;40.35;103952.44;5053028;28;20067;-71
2022/01/12 12:25:19;;;;;;;9.88;3.67;;;;;;;18.44;40.58;103951.41;5053618;28;20041;-71
2022/01/12 12:27:59;;;;;;;11.40;3.53;;;;;;;18.56;40.54;103951.00;5051266;28;20028;-72
2022/01/12 12:30:27;;;;;;;14.40;4.50;;;;;;;18.32;40.96;103950.09;5033280;28;20538;-72
2022/01/12 12:32:58;;;;;;;12.20;4.18;;;;;;;18.58;40.47;103946.81;5053477;28;20602;-72
2022/01/12 12:35:26;;;;;;;14.95;3.63;;;;;;;18.71;40.51;103942.59;5032983;28;20119;-79
2022/01/12 12:37:58;;;;;;;11.07;4.50;;;;;;;18.78;40.17;103936.72;5035827;28;20024;-72